Time;durP1;ratioP1;P1;durP2;ratioP2;P2;SDS_P1;SDS_P2;PMS_P1;PMS_P2;Temp;Humidity;BMP_temperature;BMP_pressure;BME280_temperature;BME280_humidity;BME280_pressure;Samples;Min_cycle;Max_cycle;Signal;HPM_P1;HPM_P2
2022/10/14 00:01:14;;;;;;;15.40;6.00;;;14.40;99.90;;;14.72;nan;100810.25;4990674;28;20680;-64
2022/10/14 00:03:42;;;;;;;10.47;5.90;;;14.40;99.90;;;14.85;nan;100810.00;4990244;28;20627;-63
2022/10/14 00:06:15;;;;;;;7.97;5.30;;;14.40;99.90;;;14.86;nan;100816.09;4977360;28;20635;-64
2022/10/14 00:08:43;;;;;;;6.47;4.37;;;14.40;99.90;;;14.74;nan;100807.47;4996606;28;20668;-64
2022/10/14 00:11:23;;;;;;;8.30;5.37;;;14.40;99.90;;;14.78;nan;100808.88;5011725;28;20628;-63
2022/10/14 00:13:58;;;;;;;8.37;5.60;;;14.40;99.90;;;14.63;nan;100805.78;4988929;28;20692;-64
2022/10/14 00:16:32;;;;;;;14.20;4.67;;;14.30;99.90;;;14.83;nan;100817.19;4993183;28;21163;-63
2022/10/14 00:19:00;;;;;;;7.07;5.07;;;14.40;99.90;;;14.68;nan;100810.63;4993066;28;20652;-64
2022/10/14 00:21:28;;;;;;;8.47;5.63;;;14.40;99.90;;;14.68;nan;100811.47;5011636;28;20634;-63
2022/10/14 00:23:56;;;;;;;7.70;5.23;;;14.30;99.90;;;14.73;nan;100816.34;5011776;28;20679;-65
2022/10/14 00:26:31;;;;;;;9.67;5.70;;;14.30;99.90;;;14.79;nan;100810.53;5010926;28;21204;-64
2022/10/14 00:29:00;;;;;;;9.13;5.23;;;14.30;99.90;;;14.80;nan;100804.31;4977304;28;20671;-64
2022/10/14 00:31:27;;;;;;;7.17;4.80;;;14.40;99.90;;;14.83;nan;100809.31;4991308;28;20641;-64
2022/10/14 00:33:55;;;;;;;9.87;5.07;;;14.40;99.90;;;14.80;nan;100812.19;4991192;28;21186;-64
2022/10/14 00:36:23;;;;;;;7.17;5.00;;;14.40;99.90;;;14.80;nan;100811.38;4991750;28;20619;-64
2022/10/14 00:38:52;;;;;;;10.67;4.93;;;14.40;99.90;;;14.81;nan;100813.03;4991059;28;20650;-64
2022/10/14 00:41:28;;;;;;;7.43;4.67;;;14.40;99.90;;;14.70;nan;100811.34;5010349;28;20630;-63
2022/10/14 00:44:26;;;;;;;6.67;4.70;;;14.40;99.90;;;14.67;nan;100814.25;4974764;28;20626;-64
2022/10/14 00:46:55;;;;;;;7.80;4.67;;;14.30;99.90;;;14.65;nan;100816.97;5005478;28;20669;-64
2022/10/14 00:49:36;;;;;;;7.80;5.30;;;14.30;99.90;;;14.67;nan;100811.63;4992363;28;20662;-64
2022/10/14 00:52:23;;;;;;;5.53;4.50;;;14.30;99.90;;;14.68;nan;100815.88;4993684;28;20622;-63
2022/10/14 00:54:57;;;;;;;5.77;4.50;;;14.30;99.90;;;14.76;nan;100813.44;5010738;28;20632;-64
2022/10/14 00:57:25;;;;;;;9.97;4.90;;;14.30;99.90;;;14.78;nan;100803.63;4994506;28;20610;-64
2022/10/14 00:59:57;;;;;;;6.77;3.90;;;14.40;99.90;;;14.71;nan;100810.38;4992626;28;20645;-64
2022/10/14 01:02:24;;;;;;;10.93;5.10;;;14.30;99.90;;;14.62;nan;100811.16;4987560;28;21179;-63
2022/10/14 01:04:51;;;;;;;10.90;5.10;;;14.30;99.90;;;14.50;nan;100799.09;4994792;28;21190;-64
2022/10/14 01:07:46;;;;;;;10.50;4.97;;;14.20;99.90;;;14.45;nan;100799.50;5002144;28;21248;-64
2022/10/14 01:10:46;;;;;;;8.67;5.17;;;14.20;99.90;;;14.51;nan;100798.13;4979397;28;20634;-63
2022/10/14 01:13:33;;;;;;;4.27;3.70;;;14.10;99.90;;;14.52;nan;100802.41;5002828;28;21193;-64
2022/10/14 01:16:25;;;;;;;7.73;5.40;;;14.10;99.90;;;14.38;nan;100793.09;4989770;28;20622;-64
2022/10/14 01:19:16;;;;;;;7.37;4.97;;;14.10;99.90;;;14.40;nan;100791.16;4978832;28;20835;-63
2022/10/14 01:22:32;;;;;;;6.30;4.27;;;14.10;99.90;;;14.38;nan;100792.25;5011659;28;20840;-64
2022/10/14 01:25:23;;;;;;;12.87;5.13;;;14.10;99.90;;;14.43;nan;100795.31;5015174;28;20628;-64
2022/10/14 01:28:19;;;;;;;7.40;4.73;;;14.10;99.90;;;14.45;nan;100793.41;5006243;28;20674;-63
2022/10/14 01:30:53;;;;;;;10.63;4.70;;;14.10;99.90;;;14.52;nan;100792.72;5008594;28;20984;-64
2022/10/14 01:33:34;;;;;;;7.97;4.87;;;14.20;99.90;;;14.60;nan;100795.56;4996077;28;20625;-63
2022/10/14 01:36:17;;;;;;;7.90;4.80;;;14.20;99.90;;;14.54;nan;100792.63;4997301;28;21062;-64
2022/10/14 01:39:05;;;;;;;7.63;5.10;;;14.20;99.90;;;14.32;nan;100788.38;5014065;28;20665;-63
2022/10/14 01:41:38;;;;;;;9.50;5.43;;;14.20;99.90;;;14.45;nan;100783.75;5015532;28;21065;-64
2022/10/14 01:44:10;;;;;;;6.50;4.70;;;14.20;99.90;;;14.35;nan;100784.66;4996327;28;20637;-63
2022/10/14 01:46:42;;;;;;;8.30;4.73;;;14.10;99.90;;;14.38;nan;100779.13;4997046;28;20969;-63
2022/10/14 01:49:21;;;;;;;8.07;5.23;;;14.10;99.90;;;14.35;nan;100780.22;4995366;28;20758;-64
2022/10/14 01:51:55;;;;;;;6.80;4.10;;;14.10;99.90;;;14.38;nan;100779.97;4997760;28;20609;-63
2022/10/14 01:54:30;;;;;;;7.53;4.60;;;14.10;99.90;;;14.37;nan;100777.47;4992265;28;20648;-63
2022/10/14 01:57:02;;;;;;;9.90;4.00;;;14.10;99.90;;;14.36;nan;100775.81;4997143;28;20613;-64
2022/10/14 01:59:31;;;;;;;11.43;4.87;;;14.10;99.90;;;14.35;nan;100777.59;4991025;28;20666;-64
2022/10/14 02:01:58;;;;;;;6.40;4.00;;;14.10;99.90;;;14.38;nan;100772.09;4996054;28;20645;-64
2022/10/14 02:04:25;;;;;;;9.07;5.43;;;14.10;99.90;;;14.26;nan;100769.66;5012677;28;20637;-64
2022/10/14 02:07:31;;;;;;;5.80;4.10;;;14.00;99.90;;;14.39;nan;100765.06;4993389;28;20983;-63
2022/10/14 02:10:38;;;;;;;8.13;5.00;;;14.10;99.90;;;14.39;nan;100762.41;4991309;28;20638;-63
2022/10/14 02:13:53;;;;;;;10.67;5.37;;;14.00;99.90;;;14.27;nan;100750.31;4994299;28;20644;-63
2022/10/14 02:16:33;;;;;;;7.63;4.67;;;14.00;99.90;;;14.50;nan;100746.59;4994334;28;21169;-64
2022/10/14 02:19:09;;;;;;;4.93;4.17;;;14.00;99.90;;;14.51;nan;100745.59;5012730;28;20659;-64
2022/10/14 02:22:13;;;;;;;10.93;4.87;;;14.10;99.90;;;14.42;nan;100734.09;5012781;28;20636;-63
2022/10/14 02:24:45;;;;;;;7.80;4.90;;;14.10;99.90;;;14.31;nan;100728.94;4970071;28;20631;-64
2022/10/14 02:27:19;;;;;;;7.93;4.73;;;14.00;99.90;;;14.30;nan;100727.28;5011239;28;22135;-63
2022/10/14 02:29:47;;;;;;;10.00;5.40;;;14.00;99.90;;;14.25;nan;100732.06;4992578;28;20729;-65
2022/10/14 02:32:18;;;;;;;8.43;4.83;;;14.00;99.90;;;14.34;nan;100718.19;4992432;28;20611;-64
2022/10/14 02:34:51;;;;;;;7.50;4.37;;;14.00;99.90;;;14.24;nan;100719.09;5001640;28;20640;-63
2022/10/14 02:37:21;;;;;;;12.53;4.73;;;14.00;99.90;;;14.34;nan;100712.09;4996767;28;20615;-64
2022/10/14 02:39:56;;;;;;;9.03;5.10;;;14.00;99.90;;;14.18;nan;100709.13;4996237;28;20616;-65
2022/10/14 02:42:23;;;;;;;9.97;4.80;;;14.00;99.90;;;14.29;nan;100707.25;4996960;28;20624;-64
2022/10/14 02:44:57;;;;;;;6.20;4.07;;;14.00;99.90;;;14.34;nan;100701.59;5012385;28;21028;-64
2022/10/14 02:47:24;;;;;;;5.80;4.17;;;14.00;99.90;;;14.26;nan;100701.41;4995595;28;20661;-65
2022/10/14 02:49:52;;;;;;;5.23;4.37;;;14.00;99.90;;;14.54;nan;100705.97;5012260;28;20640;-64
2022/10/14 02:52:19;;;;;;;13.70;4.47;;;14.10;99.90;;;14.51;nan;100695.72;5013446;28;20618;-64
2022/10/14 02:54:46;;;;;;;7.27;4.93;;;14.10;99.90;;;14.21;nan;100696.56;5011774;28;20624;-64
2022/10/14 02:57:13;;;;;;;7.40;4.87;;;14.00;99.90;;;14.26;nan;100693.53;5013495;28;20970;-64
2022/10/14 02:59:40;;;;;;;6.90;4.23;;;14.00;99.90;;;14.26;nan;100696.16;5005707;28;20646;-65
2022/10/14 03:02:07;;;;;;;8.20;4.87;;;14.00;99.90;;;14.27;nan;100689.97;5010597;28;20633;-64
2022/10/14 03:04:35;;;;;;;6.77;3.77;;;14.00;99.90;;;14.32;nan;100698.28;5011655;28;20638;-64
2022/10/14 03:07:02;;;;;;;4.93;2.70;;;14.00;99.90;;;14.33;nan;100685.03;5012556;28;20603;-63
2022/10/14 03:09:29;;;;;;;6.90;4.47;;;14.00;99.90;;;14.23;nan;100678.03;4991036;28;20650;-64
2022/10/14 03:11:56;;;;;;;11.30;4.67;;;14.00;99.90;;;14.27;nan;100685.53;4994983;28;21145;-64
2022/10/14 03:14:23;;;;;;;8.80;4.47;;;14.00;99.90;;;14.40;nan;100682.69;5011825;28;20638;-64
2022/10/14 03:16:50;;;;;;;7.37;4.60;;;14.00;99.90;;;14.34;nan;100670.94;5013228;28;20648;-64
2022/10/14 03:19:17;;;;;;;4.20;3.17;;;14.10;99.90;;;14.39;nan;100674.00;5012016;28;21544;-64
2022/10/14 03:21:44;;;;;;;6.60;4.20;;;14.00;99.90;;;14.35;nan;100669.16;5013120;28;20629;-63
2022/10/14 03:24:11;;;;;;;5.70;3.93;;;14.10;99.90;;;14.36;nan;100676.06;4990201;28;21209;-64
2022/10/14 03:26:38;;;;;;;10.07;4.07;;;14.10;99.90;;;14.33;nan;100673.72;5013398;28;20618;-64
2022/10/14 03:29:05;;;;;;;6.60;4.30;;;14.00;99.90;;;14.41;nan;100673.88;5012081;28;20679;-64
2022/10/14 03:31:32;;;;;;;9.67;5.87;;;14.00;99.90;;;14.24;nan;100669.22;5013371;28;20629;-63
2022/10/14 03:33:59;;;;;;;6.10;4.40;;;14.00;99.90;;;14.25;nan;100668.25;5004275;28;20698;-64
2022/10/14 03:36:26;;;;;;;8.37;4.87;;;14.00;99.90;;;14.29;nan;100665.25;4999756;28;21009;-64
2022/10/14 03:38:53;;;;;;;8.43;4.80;;;14.00;99.90;;;14.28;nan;100670.63;5034539;23;20695;-65
2022/10/14 03:41:20;;;;;;;5.77;4.50;;;14.00;99.90;;;14.17;nan;100665.47;5031825;28;21105;-64
2022/10/14 03:43:47;;;;;;;5.73;4.40;;;13.90;99.90;;;14.22;nan;100669.38;5017655;28;20641;-64
2022/10/14 03:46:14;;;;;;;8.53;4.50;;;13.90;99.90;;;14.12;nan;100657.97;5030129;28;20633;-64
2022/10/14 03:48:40;;;;;;;6.70;4.30;;;13.90;99.90;;;14.25;nan;100655.13;5021569;28;20680;-63
2022/10/14 03:51:08;;;;;;;9.67;5.30;;;13.90;99.90;;;14.28;nan;100660.94;5011256;28;21037;-64
2022/10/14 03:53:35;;;;;;;12.10;5.57;;;13.90;99.90;;;14.18;nan;100659.25;5010940;28;20630;-63
2022/10/14 03:56:02;;;;;;;10.17;5.00;;;13.90;99.90;;;14.22;nan;100658.03;5012076;28;20672;-64
2022/10/14 03:58:28;;;;;;;8.77;4.90;;;13.90;99.90;;;14.21;nan;100661.59;5010086;28;20653;-63
2022/10/14 04:00:55;;;;;;;12.23;5.00;;;13.90;99.90;;;14.03;nan;100654.34;5004069;28;20638;-65
2022/10/14 04:03:22;;;;;;;8.30;5.07;;;13.90;99.90;;;14.20;nan;100659.94;4988367;28;20665;-63
2022/10/14 04:05:49;;;;;;;8.83;4.50;;;13.90;99.90;;;14.01;nan;100658.91;4999584;28;20636;-64
2022/10/14 04:08:16;;;;;;;11.17;5.40;;;13.80;99.90;;;14.21;nan;100658.97;5010002;28;21275;-65
2022/10/14 04:10:43;;;;;;;12.50;3.77;;;13.80;99.90;;;14.13;nan;100657.03;5010081;28;20712;-63
2022/10/14 04:13:10;;;;;;;11.17;4.90;;;13.90;99.90;;;14.31;nan;100657.28;5010975;28;20624;-64
2022/10/14 04:15:37;;;;;;;6.80;4.20;;;13.90;99.90;;;14.08;nan;100656.56;4993185;28;20874;-64
2022/10/14 04:18:04;;;;;;;6.80;4.30;;;13.90;99.90;;;14.13;nan;100643.91;5011329;28;20768;-64
2022/10/14 04:20:31;;;;;;;12.20;4.80;;;13.90;99.90;;;14.23;nan;100651.78;5011419;28;20628;-64
2022/10/14 04:23:00;;;;;;;8.23;5.10;;;13.90;99.90;;;14.17;nan;100642.69;5010751;28;21267;-63
2022/10/14 04:25:27;;;;;;;5.20;4.10;;;13.90;99.90;;;14.18;nan;100643.50;5012155;28;20614;-64
2022/10/14 04:27:54;;;;;;;9.90;5.57;;;13.90;99.90;;;14.24;nan;100648.22;5009944;28;20675;-64
2022/10/14 04:30:21;;;;;;;10.07;4.97;;;13.90;99.90;;;14.16;nan;100648.06;5021998;28;20609;-63
2022/10/14 04:32:48;;;;;;;7.97;5.07;;;13.90;99.90;;;14.23;nan;100643.91;5023433;28;20626;-66
2022/10/14 04:35:15;;;;;;;8.80;5.20;;;13.90;99.90;;;14.27;nan;100640.91;5010944;28;20618;-64
2022/10/14 04:37:42;;;;;;;6.00;4.40;;;13.90;99.90;;;14.17;nan;100639.22;5009602;28;20640;-65
2022/10/14 04:40:09;;;;;;;8.30;5.40;;;13.90;99.90;;;14.19;nan;100634.66;5010780;28;20989;-64
2022/10/14 04:42:36;;;;;;;6.30;4.40;;;13.90;99.90;;;14.21;nan;100630.09;5010537;28;20648;-66
2022/10/14 04:45:04;;;;;;;7.97;4.87;;;13.90;99.90;;;14.16;nan;100633.13;5007564;28;20640;-64
2022/10/14 04:47:31;;;;;;;8.90;5.17;;;13.90;99.90;;;14.29;nan;100632.94;5009701;28;21025;-64
2022/10/14 04:49:58;;;;;;;3.97;3.27;;;14.00;99.90;;;14.26;nan;100625.31;5001941;28;21018;-64
2022/10/14 04:52:25;;;;;;;6.57;4.73;;;14.00;99.90;;;14.17;nan;100611.19;5011333;28;20617;-64
2022/10/14 04:54:52;;;;;;;8.73;5.37;;;13.90;99.90;;;14.29;nan;100609.34;5011748;28;20661;-64
2022/10/14 04:57:19;;;;;;;8.73;5.00;;;14.00;99.90;;;14.19;nan;100605.78;5010036;28;20633;-65
2022/10/14 04:59:46;;;;;;;6.20;4.33;;;13.90;99.90;;;14.25;nan;100602.63;5009966;28;20668;-64
2022/10/14 05:02:13;;;;;;;8.50;4.87;;;13.90;99.90;;;14.26;nan;100607.78;5009330;28;20634;-65
2022/10/14 05:04:40;;;;;;;10.73;5.73;;;13.90;99.90;;;14.38;nan;100603.25;5011258;28;20633;-65
2022/10/14 05:07:06;;;;;;;9.27;5.37;;;14.00;99.90;;;14.34;nan;100605.31;5010675;28;20624;-65
2022/10/14 05:09:33;;;;;;;8.90;5.40;;;14.00;99.90;;;14.37;nan;100601.59;5009502;28;20676;-65
2022/10/14 05:12:01;;;;;;;10.23;5.87;;;14.00;99.90;;;14.39;nan;100594.44;5011118;28;20601;-64
2022/10/14 05:14:28;;;;;;;8.90;5.17;;;14.10;99.90;;;14.38;nan;100593.59;4992808;28;21361;-65
2022/10/14 05:16:55;;;;;;;11.43;5.20;;;14.00;99.90;;;14.20;nan;100602.22;4993098;28;20700;-66
2022/10/14 05:19:22;;;;;;;4.80;2.90;;;14.00;99.90;;;14.23;nan;100599.31;5009518;28;20662;-65
2022/10/14 05:21:49;;;;;;;15.73;6.87;;;14.00;99.90;;;14.29;nan;100596.22;5010170;28;20617;-65
2022/10/14 05:24:16;;;;;;;7.00;4.97;;;14.00;99.90;;;14.24;nan;100599.19;5009836;28;20980;-65
2022/10/14 05:26:43;;;;;;;7.47;5.33;;;14.00;99.90;;;14.37;nan;100593.72;5011481;28;20617;-65
2022/10/14 05:29:11;;;;;;;8.83;5.77;;;14.00;99.90;;;14.39;nan;100597.06;5009360;28;20687;-65
2022/10/14 05:31:38;;;;;;;9.30;6.07;;;14.00;99.90;;;14.37;nan;100597.19;5011439;28;20626;-65
2022/10/14 05:34:05;;;;;;;16.40;6.40;;;14.10;99.90;;;14.36;nan;100589.44;5008772;28;20646;-65
2022/10/14 05:36:32;;;;;;;15.90;6.10;;;14.10;99.90;;;14.36;nan;100589.44;5010557;28;20683;-65
2022/10/14 05:38:59;;;;;;;10.67;6.33;;;14.00;99.90;;;14.40;nan;100588.19;5008898;28;20673;-64
2022/10/14 05:41:26;;;;;;;13.77;7.30;;;14.10;99.90;;;14.28;nan;100591.88;5009196;28;20637;-66
2022/10/14 05:43:53;;;;;;;11.17;5.53;;;14.00;99.90;;;14.32;nan;100586.25;5010036;28;20641;-65
2022/10/14 05:46:20;;;;;;;9.57;5.30;;;14.00;99.90;;;14.19;nan;100583.00;4991527;28;20645;-67
2022/10/14 05:48:47;;;;;;;7.50;5.30;;;14.00;99.90;;;14.43;nan;100572.19;5008522;28;20673;-65
2022/10/14 05:51:14;;;;;;;13.53;6.17;;;14.00;99.90;;;14.46;nan;100575.34;5009588;28;20618;-65
2022/10/14 05:53:42;;;;;;;13.00;6.20;;;14.10;99.90;;;14.63;nan;100576.47;5009391;28;21053;-65
2022/10/14 05:56:09;;;;;;;10.10;6.40;;;14.10;99.90;;;14.43;nan;100573.03;5010458;28;21002;-65
2022/10/14 05:58:36;;;;;;;17.83;6.13;;;14.20;99.90;;;14.56;nan;100578.84;5009022;28;21004;-67
2022/10/14 06:01:07;;;;;;;18.70;8.00;;;14.20;99.90;;;14.59;nan;100583.81;5009661;28;20617;-65
2022/10/14 06:03:34;;;;;;;27.43;7.47;;;14.20;99.90;;;14.65;nan;100585.06;4991551;28;20641;-66
2022/10/14 06:06:01;;;;;;;11.40;7.40;;;14.20;99.90;;;14.68;nan;100588.25;5009734;28;20624;-66
2022/10/14 06:08:28;;;;;;;16.10;6.93;;;14.20;99.90;;;14.70;nan;100593.34;5010919;28;20676;-67
2022/10/14 06:10:55;;;;;;;14.30;6.20;;;14.20;99.90;;;14.63;nan;100594.84;4989884;28;21018;-65
2022/10/14 06:13:23;;;;;;;14.07;7.13;;;14.30;99.90;;;14.61;nan;100588.91;5005709;28;20639;-66
2022/10/14 06:15:50;;;;;;;15.07;6.60;;;14.30;99.90;;;14.71;nan;100587.16;5013197;28;20668;-65
2022/10/14 06:18:17;;;;;;;11.97;6.37;;;14.30;99.90;;;14.60;nan;100589.91;5011196;28;20658;-64
2022/10/14 06:20:52;;;;;;;10.10;6.57;;;14.30;99.90;;;14.57;nan;100585.75;5013007;28;20598;-65
2022/10/14 06:23:19;;;;;;;22.07;7.50;;;14.20;99.90;;;14.57;nan;100582.28;4994542;28;20653;-65
2022/10/14 06:25:46;;;;;;;12.00;6.43;;;14.20;99.90;;;14.57;nan;100580.50;4995313;28;20985;-66
2022/10/14 06:28:16;;;;;;;13.47;7.17;;;14.30;99.90;;;14.60;nan;100587.28;5012667;28;20677;-65
2022/10/14 06:30:50;;;;;;;15.50;6.83;;;14.20;99.90;;;14.52;nan;100582.69;5014163;28;20614;-64
2022/10/14 06:33:17;;;;;;;16.03;6.70;;;14.20;99.90;;;14.61;nan;100581.03;4979596;28;21061;-67
2022/10/14 06:35:44;;;;;;;8.53;5.17;;;14.30;99.90;;;14.55;nan;100581.59;5013425;28;20617;-65
2022/10/14 06:38:11;;;;;;;8.87;5.70;;;14.30;99.90;;;14.61;nan;100578.41;5012371;28;20661;-65
2022/10/14 06:40:39;;;;;;;9.80;6.23;;;14.20;99.90;;;14.73;nan;100577.34;5014283;28;20628;-65
2022/10/14 06:43:05;;;;;;;10.83;5.40;;;14.30;99.90;;;14.76;nan;100579.66;5012609;28;20780;-65
2022/10/14 06:45:33;;;;;;;10.23;6.43;;;14.30;99.90;;;14.88;nan;100578.56;5013371;28;20637;-65
2022/10/14 06:48:00;;;;;;;8.30;5.37;;;14.40;99.90;;;14.73;nan;100577.34;5011662;28;20638;-63
2022/10/14 06:50:27;;;;;;;8.87;5.50;;;14.40;99.90;;;14.82;nan;100579.13;5009186;28;21033;-66
2022/10/14 06:52:54;;;;;;;10.27;5.60;;;14.40;99.90;;;14.88;nan;100570.69;5012203;28;20636;-65
2022/10/14 06:55:21;;;;;;;8.23;5.20;;;14.40;99.90;;;14.84;nan;100576.34;5012330;28;20633;-66
2022/10/14 06:57:48;;;;;;;8.07;5.20;;;14.40;99.90;;;14.87;nan;100570.81;5012866;28;20638;-65
2022/10/14 07:00:16;;;;;;;6.53;4.50;;;14.40;99.90;;;14.97;nan;100566.41;5011258;28;21372;-65
2022/10/14 07:02:43;;;;;;;7.50;4.93;;;14.50;99.90;;;14.86;nan;100564.75;5012195;28;20629;-65
2022/10/14 07:05:11;;;;;;;17.93;5.50;;;14.50;99.90;;;15.11;nan;100564.16;5010487;28;20637;-65
2022/10/14 07:07:38;;;;;;;13.03;5.93;;;14.60;99.90;;;14.92;nan;100569.44;4990573;28;20657;-65
2022/10/14 07:10:06;;;;;;;12.50;6.60;;;14.60;99.90;;;15.14;nan;100574.38;5011794;28;20676;-65
2022/10/14 07:12:36;;;;;;;13.90;5.90;;;14.60;99.90;;;15.01;nan;100573.88;4994717;28;20640;-65
2022/10/14 07:15:04;;;;;;;10.00;5.53;;;14.70;99.90;;;15.25;nan;100571.59;5011292;28;20645;-66
2022/10/14 07:17:32;;;;;;;11.70;6.57;;;14.80;99.90;;;15.25;nan;100573.41;4994847;28;20638;-64
2022/10/14 07:19:59;;;;;;;8.43;6.00;;;14.80;99.90;;;15.29;nan;100575.59;5009916;28;20664;-64
2022/10/14 07:22:26;;;;;;;7.67;4.93;;;14.80;99.90;;;15.32;nan;100572.69;5011428;28;20621;-64
2022/10/14 07:24:53;;;;;;;9.77;5.90;;;14.80;99.90;;;15.14;nan;100569.13;4995629;28;20628;-64
2022/10/14 07:27:20;;;;;;;9.83;5.03;;;14.80;99.90;;;15.02;nan;100565.00;5010764;28;20644;-65
2022/10/14 07:29:47;;;;;;;7.23;4.80;;;14.80;99.90;;;15.36;nan;100560.94;5012091;28;20673;-64
2022/10/14 07:32:14;;;;;;;8.17;5.20;;;14.80;99.90;;;15.26;nan;100562.75;5012295;28;20626;-64
2022/10/14 07:34:41;;;;;;;12.90;6.53;;;14.80;99.90;;;15.29;nan;100559.84;5011277;28;20638;-65
2022/10/14 07:37:08;;;;;;;10.30;6.23;;;14.90;99.90;;;15.26;nan;100557.50;5012104;28;20618;-64
2022/10/14 07:39:35;;;;;;;10.23;6.30;;;14.90;99.90;;;15.27;nan;100561.78;5011137;28;20661;-64
2022/10/14 07:42:03;;;;;;;11.77;6.17;;;14.90;99.90;;;15.31;nan;100567.59;5012067;28;20636;-66
2022/10/14 07:44:30;;;;;;;8.90;5.47;;;14.90;99.90;;;15.20;nan;100567.75;5004777;28;20626;-65
2022/10/14 07:46:58;;;;;;;15.73;6.30;;;14.90;99.90;;;15.32;nan;100567.44;5012118;28;20665;-66
2022/10/14 07:49:25;;;;;;;13.53;5.93;;;14.90;99.90;;;15.44;nan;100566.34;5009917;28;20665;-66
2022/10/14 07:51:52;;;;;;;8.50;5.20;;;14.90;99.90;;;15.46;nan;100564.38;5011095;28;20636;-65
2022/10/14 07:54:23;;;;;;;11.50;6.33;;;15.00;99.90;;;15.43;nan;100562.06;5012504;28;20614;-65
2022/10/14 07:56:51;;;;;;;12.93;6.53;;;15.00;99.90;;;15.57;nan;100559.94;5010932;28;21196;-67
2022/10/14 07:59:20;;;;;;;8.10;5.37;;;15.10;99.90;;;15.58;nan;100564.22;5010781;28;20772;-67
2022/10/14 08:01:49;;;;;;;7.37;4.77;;;15.10;99.90;;;15.61;nan;100558.69;5001364;28;20679;-65
2022/10/14 08:04:16;;;;;;;7.90;4.67;;;15.10;99.90;;;15.48;nan;100559.00;5010808;28;20622;-65
2022/10/14 08:06:53;;;;;;;12.27;5.07;;;15.10;99.90;;;15.57;nan;100559.94;5001731;28;21065;-66
2022/10/14 08:09:20;;;;;;;10.27;5.53;;;15.10;99.90;;;15.60;nan;100559.63;5008995;28;20673;-65
2022/10/14 08:11:48;;;;;;;11.00;5.60;;;15.10;99.90;;;15.58;nan;100554.53;5009220;28;20664;-65
2022/10/14 08:14:15;;;;;;;8.67;4.93;;;15.10;99.90;;;15.76;nan;100551.97;4980509;28;20638;-65
2022/10/14 08:16:44;;;;;;;6.43;3.93;;;15.20;99.90;;;15.89;nan;100550.66;5009564;28;20682;-66
2022/10/14 08:19:11;;;;;;;8.83;4.77;;;15.30;99.90;;;15.93;nan;100559.91;5010137;28;20668;-66
2022/10/14 08:21:42;;;;;;;5.80;4.50;;;15.40;99.90;;;15.87;nan;100559.66;5012302;28;20626;-64
2022/10/14 08:24:09;;;;;;;7.77;4.83;;;15.40;99.90;;;15.83;nan;100567.03;5011141;28;20683;-64
2022/10/14 08:26:48;;;;;;;6.27;4.30;;;15.40;99.90;;;16.14;nan;100564.94;5011283;28;20641;-65
2022/10/14 08:29:16;;;;;;;7.70;5.10;;;15.50;99.90;;;16.19;nan;100558.25;5010756;28;20684;-65
2022/10/14 08:31:45;;;;;;;10.40;4.70;;;15.60;99.90;;;16.13;nan;100550.94;4988364;28;20627;-64
2022/10/14 08:34:12;;;;;;;6.40;4.50;;;15.60;99.90;;;16.17;nan;100554.94;5008904;28;20638;-64
2022/10/14 08:36:42;;;;;;;4.37;3.67;;;15.70;99.90;;;16.13;nan;100563.28;5010299;28;20628;-66
2022/10/14 08:39:09;;;;;;;6.10;4.20;;;15.70;99.90;;;15.97;nan;100560.47;5011463;28;20663;-65
2022/10/14 08:42:19;;;;;;;6.30;4.43;;;15.70;99.90;;;16.15;nan;100556.88;5011076;28;20633;-65
2022/10/14 08:45:16;;;;;;;7.00;4.23;;;15.70;99.90;;;16.18;nan;100553.13;4962067;28;20641;-65
2022/10/14 08:47:45;;;;;;;10.50;3.80;;;15.70;99.90;;;16.26;nan;100550.59;4990309;28;21183;-65
2022/10/14 08:50:35;;;;;;;5.57;3.70;;;15.80;99.90;;;16.31;nan;100548.34;5009056;28;20661;-64
2022/10/14 08:53:11;;;;;;;6.23;4.73;;;15.80;99.90;;;16.29;nan;100555.56;4994652;28;20624;-66
2022/10/14 08:56:07;;;;;;;8.30;3.90;;;15.80;99.90;;;16.11;nan;100552.06;4993969;28;20633;-66
2022/10/14 08:58:40;;;;;;;5.10;3.77;;;15.70;99.90;;;16.15;nan;100548.16;4991086;28;20672;-66
2022/10/14 09:01:33;;;;;;;7.17;4.30;;;15.80;99.90;;;16.28;nan;100554.72;4987922;28;20646;-67
2022/10/14 09:04:11;;;;;;;10.27;7.20;;;15.80;99.90;;;16.44;nan;100548.78;5004896;28;21008;-65
2022/10/14 09:06:43;;;;;;;13.60;6.50;;;15.90;99.90;;;16.36;nan;100548.72;5008055;28;20641;-65
2022/10/14 09:09:31;;;;;;;7.90;4.97;;;16.00;99.90;;;16.58;nan;100544.84;4989698;28;20680;-69
2022/10/14 09:12:04;;;;;;;10.20;4.83;;;16.00;99.90;;;16.79;nan;100540.94;4986608;28;20648;-66
2022/10/14 09:14:40;;;;;;;5.10;3.80;;;16.20;99.90;;;16.63;nan;100539.97;5003273;28;21210;-66
2022/10/14 09:17:21;;;;;;;8.03;3.80;;;16.20;99.90;;;16.68;nan;100541.16;5010578;28;21188;-66
2022/10/14 09:20:04;;;;;;;12.40;3.07;;;16.20;99.90;;;16.65;nan;100545.91;5007251;28;21120;-63
2022/10/14 09:22:31;;;;;;;5.50;4.47;;;16.20;99.90;;;16.88;nan;100537.38;5010269;28;20614;-65
2022/10/14 09:24:58;;;;;;;4.70;3.90;;;16.30;99.90;;;16.70;nan;100526.03;5008915;28;20688;-64
2022/10/14 09:27:27;;;;;;;7.30;4.10;;;16.30;99.90;;;17.12;nan;100530.63;5010908;28;20618;-63
2022/10/14 09:29:59;;;;;;;5.97;3.50;;;16.40;99.90;;;17.41;nan;100524.06;4992380;28;20650;-64
2022/10/14 09:32:33;;;;;;;5.27;4.33;;;16.60;99.90;;;17.63;nan;100526.16;4993987;28;20622;-64
2022/10/14 09:35:01;;;;;;;6.23;3.83;;;16.80;99.90;;;17.49;nan;100518.00;4999373;28;21160;-63
2022/10/14 09:37:35;;;;;;;8.70;3.77;;;16.90;99.90;;;17.50;nan;100514.41;4992204;28;20636;-64
2022/10/14 09:40:08;;;;;;;6.47;4.03;;;16.90;99.90;;;17.56;nan;100516.41;5003692;23;1074512;-65
2022/10/14 09:43:09;;;;;;;6.73;4.23;;;16.90;99.90;;;17.36;nan;100517.59;5030397;28;20206;-65
2022/10/14 09:45:54;;;;;;;4.07;3.27;;;16.90;99.90;;;17.36;nan;100501.75;5034718;28;20633;-65
2022/10/14 09:48:46;;;;;;;8.27;4.50;;;16.90;99.90;;;17.58;nan;100501.25;5030356;28;20661;-64
2022/10/14 09:51:22;;;;;;;7.13;3.60;;;16.90;99.90;;;17.37;nan;100503.44;4980408;28;20617;-65
2022/10/14 09:53:56;;;;;;;3.63;3.30;;;16.90;99.90;;;17.57;nan;100502.22;4995813;28;21009;-64
2022/10/14 09:56:38;;;;;;;5.17;3.33;;;16.90;99.90;;;17.61;nan;100498.31;4996365;28;20827;-64
2022/10/14 09:59:20;;;;;;;4.50;3.60;;;17.00;99.90;;;17.33;nan;100494.19;5010091;28;20660;-64
2022/10/14 10:01:56;;;;;;;6.10;3.50;;;16.90;99.90;;;17.14;nan;100491.75;4994437;28;20630;-65
2022/10/14 10:04:46;;;;;;;6.73;3.77;;;16.80;99.90;;;17.24;nan;100487.19;5004906;28;20710;-64
2022/10/14 10:07:32;;;;;;;7.70;4.20;;;16.80;99.90;;;17.41;nan;100483.66;4996183;28;20614;-65
2022/10/14 10:10:08;;;;;;;3.83;3.13;;;16.90;99.90;;;17.23;nan;100475.00;4980791;28;20661;-64
2022/10/14 10:12:35;;;;;;;5.57;3.80;;;16.80;99.90;;;17.50;nan;100480.13;4973282;28;20627;-63
2022/10/14 10:15:06;;;;;;;7.80;4.10;;;16.90;99.90;;;17.37;nan;100471.78;5010140;28;21210;-64
2022/10/14 10:17:39;;;;;;;9.17;4.53;;;16.90;99.90;;;17.70;nan;100469.16;5011655;28;20652;-64
2022/10/14 10:20:19;;;;;;;4.20;3.20;;;17.00;99.90;;;17.73;nan;100470.66;4995585;28;21022;-64
2022/10/14 10:22:46;;;;;;;5.53;4.23;;;17.10;99.90;;;17.69;nan;100479.88;5005860;28;20646;-65
2022/10/14 10:25:12;;;;;;;3.20;2.73;;;17.20;99.90;;;17.81;nan;100476.78;5011955;28;21185;-64
2022/10/14 10:27:48;;;;;;;6.20;3.87;;;17.20;99.90;;;17.70;nan;100463.03;5011735;28;21173;-63
2022/10/14 10:30:28;;;;;;;7.93;3.20;;;17.30;99.90;;;17.41;nan;100463.41;5006582;28;20661;-64
2022/10/14 10:33:25;;;;;;;7.03;3.97;;;17.10;99.90;;;17.58;nan;100459.03;5011235;28;20651;-64
2022/10/14 10:36:19;;;;;;;5.50;3.47;;;17.10;99.90;;;17.36;nan;100468.31;4977097;28;20613;-65
2022/10/14 10:39:23;;;;;;;6.17;3.70;;;17.00;99.90;;;17.08;nan;100466.03;4976460;28;21218;-64
2022/10/14 10:42:02;;;;;;;6.67;3.10;;;16.80;99.90;;;17.22;nan;100457.53;4994107;28;20697;-63
2022/10/14 10:45:05;;;;;;;5.70;3.40;;;16.80;99.90;;;17.56;nan;100455.75;5008233;28;20659;-64